createdAt,value
2023-02-07T00:01:29.382Z,49.83
2023-02-07T00:06:27.599Z,43.33
2023-02-07T00:08:57.437Z,34.83
2023-02-07T00:11:25.865Z,37.57
2023-02-07T00:13:55.527Z,33.80
2023-02-07T00:16:25.514Z,30.57
2023-02-07T00:18:53.983Z,27.10
2023-02-07T00:21:24.206Z,31.10
2023-02-07T00:23:53.150Z,26.83
2023-02-07T00:26:24.404Z,25.10
2023-02-07T00:28:54.148Z,36.03
2023-02-07T00:31:24.177Z,28.07
2023-02-07T00:33:55.312Z,27.30
2023-02-07T00:36:25.602Z,31.83
2023-02-07T00:38:57.853Z,30.10
2023-02-07T00:41:27.726Z,27.13
2023-02-07T00:43:56.020Z,33.43
2023-02-07T00:46:24.810Z,26.95
2023-02-07T00:48:53.293Z,28.10
2023-02-07T00:51:21.586Z,27.95
2023-02-07T00:53:49.865Z,31.48
2023-02-07T00:56:17.983Z,28.20
2023-02-07T00:58:49.510Z,29.57
2023-02-07T01:01:20.196Z,32.43
2023-02-07T01:03:48.492Z,28.43
2023-02-07T01:06:16.539Z,18.25
2023-02-07T01:08:44.930Z,27.07
2023-02-07T01:11:16.554Z,26.75
2023-02-07T01:13:45.690Z,36.43
2023-02-07T01:16:25.386Z,52.08
2023-02-07T01:18:53.450Z,47.27
2023-02-07T01:21:23.408Z,49.53
2023-02-07T01:23:51.621Z,46.87
2023-02-07T01:26:19.719Z,49.60
2023-02-07T01:28:47.790Z,42.07
2023-02-07T01:31:16.088Z,43.70
2023-02-07T01:33:45.765Z,35.05
2023-02-07T01:36:15.785Z,37.70
2023-02-07T01:38:44.487Z,38.47
2023-02-07T01:41:15.008Z,40.50
2023-02-07T01:44:01.088Z,40.17
2023-02-07T01:46:30.357Z,39.13
2023-02-07T01:49:03.503Z,37.13
2023-02-07T01:51:33.387Z,43.50
2023-02-07T01:54:05.964Z,34.90
2023-02-07T01:56:35.454Z,41.63
2023-02-07T01:59:06.778Z,40.77
2023-02-07T02:01:35.900Z,42.00
2023-02-07T02:04:06.138Z,66.20
2023-02-07T02:06:35.506Z,56.47
2023-02-07T02:09:10.264Z,55.57
2023-02-07T02:12:08.690Z,56.33
2023-02-07T02:15:24.799Z,45.60
2023-02-07T02:18:12.474Z,41.63
2023-02-07T02:21:31.948Z,38.23
2023-02-07T02:24:23.647Z,40.83
2023-02-07T02:27:01.744Z,42.10
2023-02-07T02:30:07.981Z,33.90
2023-02-07T02:33:03.485Z,41.10
2023-02-07T02:35:37.403Z,41.37
2023-02-07T02:38:15.171Z,42.90
2023-02-07T02:40:50.355Z,40.83
2023-02-07T02:43:32.451Z,47.53
2023-02-07T02:46:04.434Z,44.67
2023-02-07T02:48:35.911Z,43.00
2023-02-07T02:51:05.411Z,42.97
2023-02-07T02:53:33.644Z,43.93
2023-02-07T02:56:25.472Z,38.95
2023-02-07T02:59:15.297Z,40.87
2023-02-07T03:01:54.730Z,35.03
2023-02-07T03:04:37.735Z,37.00
2023-02-07T03:07:19.646Z,35.23
2023-02-07T03:09:59.845Z,45.97
2023-02-07T03:12:35.078Z,46.27
2023-02-07T03:15:08.463Z,39.87
2023-02-07T03:17:43.947Z,42.63
2023-02-07T03:20:20.396Z,42.27
2023-02-07T03:22:49.805Z,42.63
2023-02-07T03:25:19.429Z,39.80
2023-02-07T03:27:49.446Z,41.27
2023-02-07T03:30:21.573Z,43.40
2023-02-07T03:32:52.495Z,44.63
2023-02-07T03:35:26.588Z,42.87
2023-02-07T03:37:57.680Z,46.47
2023-02-07T03:40:29.382Z,52.23
2023-02-07T03:43:03.994Z,52.97
2023-02-07T03:45:32.290Z,50.43
2023-02-07T03:48:00.563Z,56.55
2023-02-07T03:50:30.104Z,54.67
2023-02-07T03:52:58.309Z,51.87
2023-02-07T03:55:26.625Z,38.00
2023-02-07T03:57:54.908Z,44.10
2023-02-07T04:00:23.223Z,50.97
2023-02-07T04:02:51.440Z,41.60
2023-02-07T04:05:19.761Z,47.40
2023-02-07T04:07:49.219Z,50.53
2023-02-07T04:10:17.485Z,53.13
2023-02-07T04:12:45.583Z,46.85
2023-02-07T04:15:14.033Z,54.88
2023-02-07T04:17:42.143Z,38.97
2023-02-07T04:20:11.582Z,59.17
2023-02-07T04:22:39.738Z,52.40
2023-02-07T04:25:09.783Z,33.40
2023-02-07T04:27:37.917Z,44.73
2023-02-07T04:30:06.521Z,51.10
2023-02-07T04:32:34.588Z,48.20
2023-02-07T04:35:02.697Z,47.17
2023-02-07T04:37:30.789Z,38.17
2023-02-07T04:39:58.892Z,48.53
2023-02-07T04:42:28.395Z,49.07
2023-02-07T04:44:56.510Z,48.60
2023-02-07T04:47:24.819Z,46.17
2023-02-07T04:49:52.894Z,48.38
2023-02-07T04:52:20.964Z,56.87
2023-02-07T04:54:49.096Z,43.40
2023-02-07T04:57:17.612Z,42.60
2023-02-07T04:59:47.057Z,55.65
2023-02-07T05:02:16.013Z,60.10
2023-02-07T05:04:44.087Z,70.07
2023-02-07T05:07:12.247Z,58.17
2023-02-07T05:09:40.363Z,57.83
2023-02-07T05:12:08.982Z,40.40
2023-02-07T05:14:37.059Z,58.78
2023-02-07T05:17:06.599Z,59.57
2023-02-07T05:19:34.843Z,62.77
2023-02-07T05:22:02.937Z,53.22
2023-02-07T05:24:31.004Z,45.40
2023-02-07T05:26:59.097Z,36.63
2023-02-07T05:29:27.282Z,37.47
2023-02-07T05:32:13.198Z,48.30
2023-02-07T05:34:42.628Z,48.13
2023-02-07T05:37:10.756Z,56.37
2023-02-07T05:39:38.944Z,53.80
2023-02-07T05:42:07.232Z,60.93
2023-02-07T05:44:35.290Z,58.05
2023-02-07T05:47:03.391Z,61.60
2023-02-07T05:49:31.539Z,39.40
2023-02-07T05:52:00.998Z,59.97
2023-02-07T05:54:29.084Z,74.97
2023-02-07T05:56:57.192Z,73.97
2023-02-07T05:59:25.282Z,46.57
2023-02-07T06:01:53.380Z,41.80
2023-02-07T06:04:21.404Z,41.63
2023-02-07T06:06:49.480Z,43.97
2023-02-07T06:09:19.146Z,59.53
2023-02-07T06:11:47.508Z,64.50
2023-02-07T06:14:15.569Z,58.30
2023-02-07T06:16:43.729Z,50.40
2023-02-07T06:19:12.899Z,55.92
2023-02-07T06:21:46.632Z,60.37
2023-02-07T06:24:15.602Z,56.27
2023-02-07T06:26:46.686Z,54.85
2023-02-07T06:29:14.926Z,57.07
2023-02-07T06:31:43.177Z,52.72
2023-02-07T06:34:11.323Z,55.33
2023-02-07T06:36:39.437Z,51.40
2023-02-07T06:39:07.719Z,52.83
2023-02-07T06:41:35.811Z,40.25
2023-02-07T06:44:05.357Z,58.57
2023-02-07T06:46:33.681Z,76.40
2023-02-07T06:49:01.809Z,82.07
2023-02-07T06:51:29.948Z,69.73
2023-02-07T06:53:57.999Z,45.20
2023-02-07T06:56:26.079Z,43.70
2023-02-07T06:58:54.137Z,48.87
2023-02-07T07:01:23.583Z,52.40
2023-02-07T07:03:51.866Z,61.27
2023-02-07T07:06:20.097Z,58.03
2023-02-07T07:08:48.181Z,62.05
2023-02-07T07:11:16.249Z,59.57
2023-02-07T07:13:44.392Z,54.03
2023-02-07T07:16:12.547Z,43.67
2023-02-07T07:18:42.366Z,45.53
2023-02-07T07:21:10.793Z,63.60
2023-02-07T07:23:38.880Z,62.60
2023-02-07T07:26:07.330Z,73.93
2023-02-07T07:28:35.404Z,85.50
2023-02-07T07:31:04.746Z,74.30
2023-02-07T07:33:33.150Z,77.67
2023-02-07T07:36:04.119Z,71.93
2023-02-07T07:38:33.152Z,84.37
2023-02-07T07:41:01.736Z,102.72
2023-02-07T07:43:29.779Z,98.35
2023-02-07T07:46:00.044Z,112.20
2023-02-07T07:48:28.937Z,81.77
2023-02-07T07:50:57.109Z,85.25
2023-02-07T07:53:26.579Z,62.50
2023-02-07T07:55:56.276Z,72.17
2023-02-07T07:58:26.140Z,75.53
2023-02-07T08:00:54.275Z,72.77
2023-02-07T08:03:22.875Z,58.03
2023-02-07T08:05:51.722Z,52.97
2023-02-07T08:08:20.503Z,61.92
2023-02-07T08:10:50.371Z,55.65
2023-02-07T08:13:19.861Z,67.93
2023-02-07T08:15:48.300Z,62.17
2023-02-07T08:18:16.440Z,232.73
2023-02-07T08:20:44.539Z,486.40
2023-02-07T08:23:12.675Z,723.53
2023-02-07T08:25:41.508Z,220.07
2023-02-07T08:28:11.492Z,194.05
2023-02-07T08:30:40.020Z,110.13
2023-02-07T08:33:08.345Z,70.90
2023-02-07T08:35:37.372Z,76.63
2023-02-07T08:38:05.460Z,75.32
2023-02-07T08:40:33.559Z,79.13
2023-02-07T08:43:01.791Z,75.83
2023-02-07T08:45:31.298Z,66.33
2023-02-07T08:47:59.570Z,77.87
2023-02-07T08:50:27.703Z,64.93
2023-02-07T08:52:56.293Z,60.90
2023-02-07T08:55:24.454Z,65.18
2023-02-07T08:57:52.575Z,61.30
2023-02-07T09:00:21.079Z,54.80
2023-02-07T09:02:50.551Z,58.95
2023-02-07T09:05:18.771Z,56.63
2023-02-07T09:07:46.848Z,58.08
2023-02-07T09:10:15.460Z,55.40
2023-02-07T09:12:43.707Z,60.97
2023-02-07T09:15:11.838Z,57.63
2023-02-07T09:17:40.062Z,53.70
2023-02-07T09:20:10.628Z,57.95
2023-02-07T09:22:52.754Z,56.13
2023-02-07T09:25:20.880Z,55.85
2023-02-07T09:27:49.181Z,61.03
2023-02-07T09:30:17.531Z,59.20
2023-02-07T09:32:45.634Z,59.45
2023-02-07T09:35:15.115Z,64.78
2023-02-07T09:40:20.469Z,58.85
2023-02-07T09:42:56.561Z,52.90
2023-02-07T09:45:27.763Z,50.20
2023-02-07T09:48:02.879Z,52.10
2023-02-07T09:50:35.777Z,54.92
2023-02-07T09:53:09.660Z,56.60
2023-02-07T09:55:47.033Z,50.67
2023-02-07T09:58:18.419Z,51.95
2023-02-07T10:00:53.869Z,52.65
2023-02-07T10:03:24.688Z,51.15
2023-02-07T10:06:06.071Z,57.30
2023-02-07T10:08:41.361Z,49.63
2023-02-07T10:11:16.711Z,46.70
2023-02-07T10:14:02.914Z,49.05
2023-02-07T10:16:47.092Z,51.33
2023-02-07T10:19:24.725Z,50.42
2023-02-07T10:22:02.247Z,51.13
2023-02-07T10:24:59.129Z,53.38
2023-02-07T10:27:31.932Z,58.08
2023-02-07T10:30:10.570Z,53.78
2023-02-07T10:32:40.429Z,53.67
2023-02-07T10:35:17.663Z,54.20
2023-02-07T10:37:49.263Z,51.30
2023-02-07T10:40:22.941Z,52.72
2023-02-07T10:42:59.073Z,47.95
2023-02-07T10:45:27.302Z,46.90
2023-02-07T10:47:57.606Z,47.85
2023-02-07T10:50:30.895Z,42.70
2023-02-07T10:53:00.808Z,42.08
2023-02-07T10:55:42.991Z,45.38
2023-02-07T10:58:22.725Z,46.35
2023-02-07T11:00:53.852Z,48.53
2023-02-07T11:03:23.422Z,43.08
2023-02-07T11:08:30.014Z,35.30
2023-02-07T11:10:59.694Z,33.60
2023-02-07T11:13:29.840Z,34.83
2023-02-07T11:16:01.649Z,37.85
2023-02-07T11:18:43.487Z,38.40
2023-02-07T11:21:31.103Z,39.60
2023-02-07T11:24:03.083Z,36.72
2023-02-07T11:26:32.694Z,38.80
2023-02-07T11:29:07.946Z,35.25
2023-02-07T11:31:38.831Z,32.88
2023-02-07T11:34:20.378Z,34.10
2023-02-07T11:36:48.698Z,40.40
2023-02-07T11:39:21.270Z,31.92
2023-02-07T11:41:56.213Z,33.17
2023-02-07T11:44:28.045Z,33.85
2023-02-07T11:47:03.988Z,35.72
2023-02-07T11:49:42.853Z,34.10
2023-02-07T11:52:11.765Z,30.33
2023-02-07T11:54:43.398Z,32.88
2023-02-07T11:57:14.987Z,25.48
2023-02-07T11:59:49.408Z,32.38
2023-02-07T12:02:22.018Z,24.50
2023-02-07T12:04:50.729Z,26.27
2023-02-07T12:07:25.459Z,28.23
2023-02-07T12:09:57.164Z,26.77
2023-02-07T12:12:40.272Z,23.85
2023-02-07T12:15:14.864Z,25.67
2023-02-07T12:17:54.089Z,24.90
2023-02-07T12:20:26.948Z,27.63
2023-02-07T12:23:19.032Z,24.67
2023-02-07T12:25:56.788Z,25.52
2023-02-07T12:28:30.856Z,24.67
2023-02-07T12:31:06.588Z,26.10
2023-02-07T12:33:41.976Z,29.83
2023-02-07T12:36:15.486Z,26.35
2023-02-07T12:38:48.360Z,24.75
2023-02-07T12:41:24.402Z,23.80
2023-02-07T12:44:03.660Z,24.90
2023-02-07T12:46:38.907Z,30.23
2023-02-07T12:49:23.320Z,27.38
2023-02-07T12:52:03.583Z,24.55
2023-02-07T12:54:44.846Z,25.77
2023-02-07T12:57:23.678Z,26.67
2023-02-07T13:00:02.134Z,24.85
2023-02-07T13:02:45.427Z,23.30
2023-02-07T13:05:38.761Z,30.60
2023-02-07T13:08:18.159Z,27.30
2023-02-07T13:10:55.099Z,26.10
2023-02-07T13:13:29.026Z,27.17
2023-02-07T13:16:02.473Z,27.67
2023-02-07T13:18:41.260Z,25.10
2023-02-07T13:21:18.524Z,24.30
2023-02-07T13:23:49.203Z,21.58
2023-02-07T13:26:20.403Z,25.00
2023-02-07T13:28:54.624Z,18.27
2023-02-07T13:31:26.130Z,20.92
2023-02-07T13:33:55.263Z,18.80
2023-02-07T13:36:32.629Z,18.88
2023-02-07T13:39:11.270Z,20.20
2023-02-07T13:41:50.652Z,18.05
2023-02-07T13:47:19.281Z,16.02
2023-02-07T13:49:51.835Z,14.90
2023-02-07T13:52:27.462Z,16.38
2023-02-07T13:55:05.144Z,17.60
2023-02-07T13:57:59.835Z,17.23
2023-02-07T14:00:30.908Z,15.73
2023-02-07T14:03:01.935Z,15.15
2023-02-07T14:05:32.307Z,16.73
2023-02-07T14:08:03.383Z,16.27
2023-02-07T14:10:47.810Z,16.23
2023-02-07T14:13:31.470Z,18.50
2023-02-07T14:16:11.675Z,17.58
2023-02-07T14:18:45.373Z,15.98
2023-02-07T14:21:31.282Z,17.92
2023-02-07T14:24:05.472Z,18.83
2023-02-07T14:26:52.530Z,20.67
2023-02-07T14:29:52.022Z,23.10
2023-02-07T14:32:41.147Z,23.58
2023-02-07T14:35:35.024Z,20.08
2023-02-07T14:38:13.665Z,24.38
2023-02-07T14:41:09.984Z,20.83
2023-02-07T14:43:45.782Z,22.52
2023-02-07T14:46:16.986Z,25.05
2023-02-07T14:48:52.200Z,24.27
2023-02-07T14:51:23.044Z,24.90
2023-02-07T14:54:00.102Z,26.60
2023-02-07T14:56:46.955Z,24.05
2023-02-07T14:59:19.707Z,27.33
2023-02-07T15:01:47.847Z,26.38
2023-02-07T15:04:17.357Z,26.27
2023-02-07T15:06:47.487Z,22.77
2023-02-07T15:09:22.658Z,26.52
2023-02-07T15:11:59.867Z,28.13
2023-02-07T15:14:35.086Z,29.67
2023-02-07T15:17:03.584Z,29.02
2023-02-07T15:19:36.713Z,25.63
2023-02-07T15:22:14.349Z,25.98
2023-02-07T15:24:51.918Z,27.63
2023-02-07T15:27:22.586Z,23.63
2023-02-07T15:30:01.593Z,29.70
2023-02-07T15:32:32.982Z,28.58
2023-02-07T15:35:16.000Z,28.05
2023-02-07T15:37:46.337Z,24.98
2023-02-07T15:40:17.559Z,31.00
2023-02-07T15:42:54.246Z,29.98
2023-02-07T15:45:28.110Z,25.52
2023-02-07T15:48:01.097Z,25.58
2023-02-07T15:50:31.839Z,25.15
2023-02-07T15:53:02.079Z,31.77
2023-02-07T15:55:35.404Z,28.10
2023-02-07T15:58:05.270Z,33.40
2023-02-07T16:00:39.229Z,31.00
2023-02-07T16:03:13.410Z,33.92
2023-02-07T16:05:42.877Z,36.10
2023-02-07T16:08:30.726Z,42.70
2023-02-07T16:11:13.827Z,34.25
2023-02-07T16:13:46.733Z,30.98
2023-02-07T16:16:21.546Z,33.90
2023-02-07T16:18:49.767Z,28.73
2023-02-07T16:21:23.564Z,33.20
2023-02-07T16:24:05.524Z,33.13
2023-02-07T16:26:33.941Z,40.92
2023-02-07T16:29:02.043Z,30.77
2023-02-07T16:31:32.141Z,34.17
2023-02-07T16:34:00.329Z,37.60
2023-02-07T16:36:30.355Z,35.08
2023-02-07T16:38:58.400Z,38.67
2023-02-07T16:41:31.946Z,33.75
2023-02-07T16:44:01.160Z,28.88
2023-02-07T16:46:29.862Z,34.25
2023-02-07T16:48:58.211Z,32.85
2023-02-07T16:51:26.287Z,32.88
2023-02-07T16:53:56.080Z,29.20
2023-02-07T16:56:27.927Z,36.03
2023-02-07T16:58:56.179Z,39.33
2023-02-07T17:01:24.289Z,41.90
2023-02-07T17:03:52.353Z,40.85
2023-02-07T17:06:22.102Z,55.30
2023-02-07T17:08:51.728Z,57.53
2023-02-07T17:11:25.220Z,56.45
2023-02-07T17:13:53.628Z,59.92
2023-02-07T17:16:22.784Z,63.80
2023-02-07T17:18:51.271Z,72.30
2023-02-07T17:21:21.969Z,76.53
2023-02-07T17:23:50.420Z,66.50
2023-02-07T17:26:24.441Z,67.43
2023-02-07T17:28:52.790Z,64.40
2023-02-07T17:31:20.919Z,63.03
2023-02-07T17:33:51.538Z,66.80
2023-02-07T17:36:20.348Z,64.70
2023-02-07T17:38:48.562Z,60.80
2023-02-07T17:41:17.069Z,63.72
2023-02-07T17:43:46.509Z,61.03
2023-02-07T17:48:46.650Z,86.60
2023-02-07T17:51:14.927Z,73.47
2023-02-07T17:53:43.054Z,76.85
2023-02-07T17:56:14.697Z,104.10
2023-02-07T17:58:42.823Z,86.65
2023-02-07T18:01:12.295Z,83.70
2023-02-07T18:03:40.616Z,65.68
2023-02-07T18:06:11.493Z,56.42
2023-02-07T18:08:39.526Z,60.70
2023-02-07T18:11:07.590Z,65.57
2023-02-07T18:13:35.821Z,73.57
2023-02-07T18:16:03.985Z,74.38
2023-02-07T18:18:33.443Z,78.90
2023-02-07T18:23:29.501Z,78.70
2023-02-07T18:25:57.522Z,289.35
2023-02-07T18:28:25.592Z,331.95
2023-02-07T18:30:53.720Z,224.75
2023-02-07T18:33:21.839Z,227.40
2023-02-07T18:35:57.780Z,188.20
2023-02-07T18:38:25.918Z,145.23
2023-02-07T18:40:54.007Z,124.60
2023-02-07T18:43:22.119Z,134.60
2023-02-07T18:45:50.187Z,124.82
2023-02-07T18:48:18.588Z,114.25
2023-02-07T18:50:48.068Z,71.67
2023-02-07T18:53:17.506Z,81.35
2023-02-07T18:58:13.423Z,82.65
2023-02-07T19:00:43.296Z,81.60
2023-02-07T19:03:11.336Z,76.60
2023-02-07T19:05:40.597Z,84.65
2023-02-07T19:08:08.632Z,69.80
2023-02-07T19:10:38.410Z,74.07
2023-02-07T19:13:06.631Z,72.88
2023-02-07T19:15:34.709Z,73.00
2023-02-07T19:18:05.310Z,78.68
2023-02-07T19:20:33.896Z,75.40
2023-02-07T19:23:01.920Z,89.35
2023-02-07T19:25:30.006Z,81.13
2023-02-07T19:27:59.456Z,77.50
2023-02-07T19:30:27.675Z,66.75
2023-02-07T19:32:55.744Z,50.83
2023-02-07T19:35:26.022Z,44.05
2023-02-07T19:37:54.056Z,43.80
2023-02-07T19:40:22.115Z,43.95
2023-02-07T19:42:50.146Z,43.97
2023-02-07T19:45:19.733Z,51.58
2023-02-07T19:47:47.782Z,63.88
2023-02-07T19:50:15.831Z,71.93
2023-02-07T19:52:43.871Z,72.45
2023-02-07T19:55:11.952Z,73.47
2023-02-07T19:57:41.914Z,70.07
2023-02-07T20:00:11.552Z,85.25
2023-02-07T20:02:41.033Z,108.88
2023-02-07T20:05:09.129Z,78.25
2023-02-07T20:07:37.178Z,75.60
2023-02-07T20:10:05.569Z,79.65
2023-02-07T20:12:33.892Z,67.30
2023-02-07T20:15:01.946Z,71.70
2023-02-07T20:17:29.999Z,58.40
2023-02-07T20:19:59.473Z,59.47
2023-02-07T20:22:27.619Z,48.28
2023-02-07T20:24:55.733Z,49.67
2023-02-07T20:27:23.822Z,107.43
2023-02-07T20:29:52.104Z,153.93
2023-02-07T20:32:20.213Z,172.55
2023-02-07T20:34:48.317Z,144.85
2023-02-07T20:37:17.731Z,114.43
2023-02-07T20:39:45.805Z,68.18
2023-02-07T20:42:13.887Z,65.67
2023-02-07T20:44:41.973Z,79.73
2023-02-07T20:47:11.727Z,62.55
2023-02-07T20:49:39.827Z,56.63
2023-02-07T20:52:07.943Z,52.17
2023-02-07T20:54:37.412Z,54.97
2023-02-07T20:57:05.648Z,40.85
2023-02-07T20:59:34.611Z,45.40
2023-02-07T21:02:02.930Z,39.83
2023-02-07T21:04:31.367Z,35.60
2023-02-07T21:06:59.429Z,36.22
2023-02-07T21:09:27.566Z,37.97
2023-02-07T21:11:57.784Z,31.20
2023-02-07T21:14:29.328Z,36.73
2023-02-07T21:16:59.470Z,39.75
2023-02-07T21:19:28.197Z,39.33
2023-02-07T21:21:56.413Z,30.98
2023-02-07T21:24:25.322Z,35.38
2023-02-07T21:26:55.390Z,39.35
2023-02-07T21:29:26.038Z,41.17
2023-02-07T21:31:54.358Z,36.90
2023-02-07T21:34:22.716Z,42.40
2023-02-07T21:36:52.295Z,38.70
2023-02-07T21:39:20.865Z,38.80
2023-02-07T21:41:49.125Z,38.63
2023-02-07T21:44:19.596Z,42.33
2023-02-07T21:46:49.939Z,40.03
2023-02-07T21:49:20.593Z,52.73
2023-02-07T21:51:49.953Z,60.30
2023-02-07T21:54:18.257Z,53.50
2023-02-07T21:56:46.924Z,55.07
2023-02-07T21:59:16.937Z,59.22
2023-02-07T22:01:45.849Z,66.20
2023-02-07T22:04:16.237Z,66.47
2023-02-07T22:06:47.182Z,70.27
2023-02-07T22:09:18.662Z,69.87
2023-02-07T22:11:47.172Z,67.67
2023-02-07T22:14:15.920Z,53.45
2023-02-07T22:16:44.327Z,62.08
2023-02-07T22:19:17.120Z,60.15
2023-02-07T22:21:46.279Z,62.83
2023-02-07T22:24:16.508Z,60.92
2023-02-07T22:26:45.017Z,61.10
2023-02-07T22:29:13.678Z,72.28
2023-02-07T22:31:42.944Z,74.22
2023-02-07T22:34:14.023Z,75.97
2023-02-07T22:36:45.107Z,84.17
2023-02-07T22:39:15.605Z,71.43
2023-02-07T22:41:44.002Z,72.50
2023-02-07T22:44:12.335Z,68.65
2023-02-07T22:46:40.460Z,79.07
2023-02-07T22:49:08.528Z,79.57
2023-02-07T22:51:38.447Z,72.30
2023-02-07T22:54:13.519Z,68.70
2023-02-07T22:56:41.690Z,64.03
2023-02-07T22:59:09.836Z,68.80
2023-02-07T23:01:40.181Z,74.33
2023-02-07T23:04:11.272Z,70.00
2023-02-07T23:06:39.425Z,64.27
2023-02-07T23:09:08.990Z,67.57
2023-02-07T23:11:37.637Z,65.37
2023-02-07T23:14:06.568Z,57.95
2023-02-07T23:16:35.417Z,72.50
2023-02-07T23:19:06.746Z,66.25
2023-02-07T23:21:35.155Z,62.50
2023-02-07T23:24:04.291Z,71.03
2023-02-07T23:26:34.283Z,70.82
2023-02-07T23:29:02.386Z,67.40
2023-02-07T23:31:30.796Z,62.30
2023-02-07T23:33:59.128Z,49.97
2023-02-07T23:36:27.244Z,49.03
2023-02-07T23:38:55.479Z,64.67
2023-02-07T23:41:23.550Z,59.27
2023-02-07T23:43:52.968Z,66.83
2023-02-07T23:46:21.361Z,56.23
2023-02-07T23:48:49.517Z,52.53
2023-02-07T23:51:17.612Z,62.50
2023-02-07T23:53:46.277Z,69.90
2023-02-07T23:56:17.300Z,62.05
2023-02-07T23:58:45.984Z,64.87
